ROTAER D-AMDT 10/19 Ver Mudanças

PLATAFORMA P-25 ( SBLB ) / MACAÉ, RJ 22 06 34S/039 55 01W
HD PRIV UTC-3 HJ 22 (72)
SBCW (CINDACTA 2)
MET -

[1] [2] (22) 2792-2534 CMA 1,2,3,4

RMK -

REGULAMENTOS PARA TRÁFEGO LOCAL
  1. OPS HEL TKOF DA AREA DE RESPONSABILIDADE DAS RDO ENCHOVA, RDO MARLIM E RDO ALBACORA DEVERAO APRESENTAR PVC NO AD DE ORIGEM NO CONTINENTE E HEL REALIZANDO FLT TRANSLADO BTN AS PLATAFORMAS PODERAO APRESENTAR PLN VIA RADIOTELEFONIA PARA AS RDO ENCHOVA, RDO MARLIM E RDO ALBACORA
COMPL -
  • [1] (DLY 0900-2100)
  • [2] OPR PETROBRAS
TEMP (3)
INFOTEMP CW0571M/19
ANEMOMETRO U/S

Duração: 22/08/19 18:24 a 19/11/19 23:59 UTC | Divulgação: 22/08/2019 18:24

RevogadoINFOTEMP CW0570M/19
ANEMOMETRO U/S

Duração: 22/08/19 18:22 a 19/11/19 23:59 UTC | Divulgação: 22/08/2019 18:22

INFOTEMP CW0485R/19
MET CMA (1 A 4) HR SER 0915-2045

Duração: 24/07/19 21:40 a 22/10/19 23:59 UTC | Divulgação: 24/07/2019 21:33


Suplementos AIP (0)

NOTAM (2)

E1887/19 N 31/08/2019 01:10
SID RNAV GELET 1A COMPULSORIA APRESENTACAO DE PLN ZULU
COM MUDANCA DE REGRA DE VOO PARA IFR A PARTIR DE GELET


Z2107/18 R Z0897/18 03/12/2018 17:09
NDB LBA 210.00KHZ RETIRADO
REF: AIP ENR 6 L2/H2
ATCSMAC MACAE


Nascer/Por do Sol

08:33

20:34


METAR

172200Z AUTO 03032KT 9999 NCD 24/21 Q1011 W24/S4=

TAF

Não disponível


Cartas (2)

IAC


SID



Rotas Preferenciais (0)